sensor_id;sensor_type;location;lat;lon;timestamp;pressure;altitude;pressure_sealevel;temperature;humidity
26859;BME280;14429;48.346;16.338;2024-02-23T00:02:03;97770.59;;;13.46;56.23
26859;BME280;14429;48.346;16.338;2024-02-23T00:04:29;97771.03;;;13.73;55.32
26859;BME280;14429;48.346;16.338;2024-02-23T00:06:54;97759.50;;;13.73;55.29
26859;BME280;14429;48.346;16.338;2024-02-23T00:09:19;97767.50;;;13.80;54.96
26859;BME280;14429;48.346;16.338;2024-02-23T00:11:45;97769.16;;;13.89;54.74
26859;BME280;14429;48.346;16.338;2024-02-23T00:14:12;97773.50;;;13.90;54.79
26859;BME280;14429;48.346;16.338;2024-02-23T00:16:38;97766.34;;;13.83;54.75
26859;BME280;14429;48.346;16.338;2024-02-23T00:19:04;97766.81;;;13.86;54.68
26859;BME280;14429;48.346;16.338;2024-02-23T00:21:29;97761.47;;;13.86;54.47
26859;BME280;14429;48.346;16.338;2024-02-23T00:23:54;97751.09;;;13.83;54.62
26859;BME280;14429;48.346;16.338;2024-02-23T00:26:20;97751.63;;;13.79;54.63
26859;BME280;14429;48.346;16.338;2024-02-23T00:28:45;97742.38;;;13.89;54.49
26859;BME280;14429;48.346;16.338;2024-02-23T00:31:12;97746.03;;;13.88;54.48
26859;BME280;14429;48.346;16.338;2024-02-23T00:33:37;97753.09;;;13.97;54.34
26859;BME280;14429;48.346;16.338;2024-02-23T00:36:03;97746.59;;;13.76;54.23
26859;BME280;14429;48.346;16.338;2024-02-23T00:38:29;97746.47;;;13.62;55.30
26859;BME280;14429;48.346;16.338;2024-02-23T00:40:54;97748.41;;;13.83;54.66
26859;BME280;14429;48.346;16.338;2024-02-23T00:43:20;97745.41;;;13.86;54.53
26859;BME280;14429;48.346;16.338;2024-02-23T00:45:45;97749.41;;;13.90;54.46
26859;BME280;14429;48.346;16.338;2024-02-23T00:48:12;97759.78;;;13.93;54.30
26859;BME280;14429;48.346;16.338;2024-02-23T00:50:37;97765.81;;;13.95;54.16
26859;BME280;14429;48.346;16.338;2024-02-23T00:53:03;97783.88;;;13.93;54.13
26859;BME280;14429;48.346;16.338;2024-02-23T00:55:28;97784.56;;;13.95;54.08
26859;BME280;14429;48.346;16.338;2024-02-23T00:57:54;97792.59;;;13.95;54.00
26859;BME280;14429;48.346;16.338;2024-02-23T01:00:19;97787.25;;;13.95;54.08
26859;BME280;14429;48.346;16.338;2024-02-23T01:02:45;97774.72;;;13.72;54.16
26859;BME280;14429;48.346;16.338;2024-02-23T01:05:12;97779.59;;;13.69;54.80
26859;BME280;14429;48.346;16.338;2024-02-23T01:07:37;97769.03;;;13.75;54.54
26859;BME280;14429;48.346;16.338;2024-02-23T01:10:03;97765.03;;;13.71;54.87
26859;BME280;14429;48.346;16.338;2024-02-23T01:12:29;97766.34;;;13.83;54.37
26859;BME280;14429;48.346;16.338;2024-02-23T01:14:54;97772.19;;;13.86;54.28
26859;BME280;14429;48.346;16.338;2024-02-23T01:17:19;97761.22;;;13.58;54.44
26859;BME280;14429;48.346;16.338;2024-02-23T01:19:45;97760.09;;;12.66;59.50
26859;BME280;14429;48.346;16.338;2024-02-23T01:22:12;97769.28;;;12.71;58.58
26859;BME280;14429;48.346;16.338;2024-02-23T01:24:37;97758.44;;;13.12;56.85
26859;BME280;14429;48.346;16.338;2024-02-23T01:27:03;97758.91;;;13.39;55.93
26859;BME280;14429;48.346;16.338;2024-02-23T01:29:28;97758.88;;;13.55;55.48
26859;BME280;14429;48.346;16.338;2024-02-23T01:31:54;97767.06;;;13.61;55.25
26859;BME280;14429;48.346;16.338;2024-02-23T01:34:19;97766.03;;;13.70;54.95
26859;BME280;14429;48.346;16.338;2024-02-23T01:36:45;97757.84;;;13.72;54.77
26859;BME280;14429;48.346;16.338;2024-02-23T01:39:11;97766.31;;;13.06;57.10
26859;BME280;14429;48.346;16.338;2024-02-23T01:41:37;97764.25;;;13.39;55.80
26859;BME280;14429;48.346;16.338;2024-02-23T01:44:03;97769.91;;;13.60;55.03
26859;BME280;14429;48.346;16.338;2024-02-23T01:46:28;97759.34;;;13.66;54.97
26859;BME280;14429;48.346;16.338;2024-02-23T01:48:53;97761.91;;;13.36;55.71
26859;BME280;14429;48.346;16.338;2024-02-23T01:51:19;97761.88;;;13.60;55.12
26859;BME280;14429;48.346;16.338;2024-02-23T01:53:44;97759.19;;;13.68;54.74
26859;BME280;14429;48.346;16.338;2024-02-23T01:56:13;97754.47;;;13.70;54.75
26859;BME280;14429;48.346;16.338;2024-02-23T01:58:39;97746.44;;;13.70;54.66
26859;BME280;14429;48.346;16.338;2024-02-23T02:01:05;97737.81;;;13.44;55.05
26859;BME280;14429;48.346;16.338;2024-02-23T02:03:30;97739.13;;;13.64;54.82
26859;BME280;14429;48.346;16.338;2024-02-23T02:05:57;97742.09;;;13.69;54.72
26859;BME280;14429;48.346;16.338;2024-02-23T02:08:23;97752.81;;;13.69;54.48
26859;BME280;14429;48.346;16.338;2024-02-23T02:10:48;97737.84;;;13.28;55.71
26859;BME280;14429;48.346;16.338;2024-02-23T02:13:15;97752.16;;;13.59;54.96
26859;BME280;14429;48.346;16.338;2024-02-23T02:15:41;97747.78;;;13.66;54.69
26859;BME280;14429;48.346;16.338;2024-02-23T02:18:06;97748.81;;;13.65;54.69
26859;BME280;14429;48.346;16.338;2024-02-23T02:20:32;97757.53;;;13.67;54.61
26859;BME280;14429;48.346;16.338;2024-02-23T02:22:58;97750.13;;;13.69;54.64
26859;BME280;14429;48.346;16.338;2024-02-23T02:25:24;97761.53;;;13.71;54.48
26859;BME280;14429;48.346;16.338;2024-02-23T02:27:49;97756.81;;;13.73;54.40
26859;BME280;14429;48.346;16.338;2024-02-23T02:30:16;97767.53;;;13.73;54.42
26859;BME280;14429;48.346;16.338;2024-02-23T02:32:42;97763.19;;;13.72;54.44
26859;BME280;14429;48.346;16.338;2024-02-23T02:35:09;97765.03;;;13.71;54.42
26859;BME280;14429;48.346;16.338;2024-02-23T02:37:35;97774.06;;;13.70;54.51
26859;BME280;14429;48.346;16.338;2024-02-23T02:40:00;97785.97;;;13.68;54.52
26859;BME280;14429;48.346;16.338;2024-02-23T02:42:26;97786.78;;;13.68;54.48
26859;BME280;14429;48.346;16.338;2024-02-23T02:44:51;97792.97;;;13.69;54.38
26859;BME280;14429;48.346;16.338;2024-02-23T02:47:18;97793.00;;;13.61;54.63
26859;BME280;14429;48.346;16.338;2024-02-23T02:49:43;97801.03;;;13.61;54.63
26859;BME280;14429;48.346;16.338;2024-02-23T02:52:09;97808.75;;;13.64;54.43
26859;BME280;14429;48.346;16.338;2024-02-23T02:54:34;97808.06;;;13.62;54.75
26859;BME280;14429;48.346;16.338;2024-02-23T02:57:00;97808.75;;;13.64;54.58
26859;BME280;14429;48.346;16.338;2024-02-23T02:59:25;97814.09;;;13.64;54.42
26859;BME280;14429;48.346;16.338;2024-02-23T03:01:50;97805.03;;;13.65;54.36
26859;BME280;14429;48.346;16.338;2024-02-23T03:04:17;97813.59;;;13.60;54.47
26859;BME280;14429;48.346;16.338;2024-02-23T03:06:43;97818.66;;;13.00;56.97
26859;BME280;14429;48.346;16.338;2024-02-23T03:09:08;97817.66;;;12.37;61.99
26859;BME280;14429;48.346;16.338;2024-02-23T03:11:33;97809.75;;;12.92;57.51
26859;BME280;14429;48.346;16.338;2024-02-23T03:13:59;97814.81;;;12.38;60.47
26859;BME280;14429;48.346;16.338;2024-02-23T03:16:24;97828.28;;;12.21;62.56
26859;BME280;14429;48.346;16.338;2024-02-23T03:18:50;97820.13;;;12.87;57.59
26859;BME280;14429;48.346;16.338;2024-02-23T03:21:16;97814.13;;;11.88;64.58
26859;BME280;14429;48.346;16.338;2024-02-23T03:23:42;97822.34;;;12.43;59.75
26859;BME280;14429;48.346;16.338;2024-02-23T03:26:07;97839.16;;;12.84;57.66
26859;BME280;14429;48.346;16.338;2024-02-23T03:28:33;97855.09;;;13.09;56.65
26859;BME280;14429;48.346;16.338;2024-02-23T03:30:59;97892.41;;;13.19;56.23
26859;BME280;14429;48.346;16.338;2024-02-23T03:33:25;97902.91;;;12.96;57.29
26859;BME280;14429;48.346;16.338;2024-02-23T03:35:50;97908.03;;;12.74;58.74
26859;BME280;14429;48.346;16.338;2024-02-23T03:38:17;97923.50;;;13.04;56.82
26859;BME280;14429;48.346;16.338;2024-02-23T03:40:43;97928.97;;;12.62;59.63
26859;BME280;14429;48.346;16.338;2024-02-23T03:43:08;97941.53;;;12.69;59.04
26859;BME280;14429;48.346;16.338;2024-02-23T03:45:34;97940.88;;;13.00;56.75
26859;BME280;14429;48.346;16.338;2024-02-23T03:47:59;97950.25;;;13.04;56.65
26859;BME280;14429;48.346;16.338;2024-02-23T03:50:25;97955.66;;;12.46;60.54
26859;BME280;14429;48.346;16.338;2024-02-23T03:52:50;97967.69;;;12.50;59.95
26859;BME280;14429;48.346;16.338;2024-02-23T03:55:17;97964.69;;;12.45;59.91
26859;BME280;14429;48.346;16.338;2024-02-23T03:57:42;97970.56;;;12.81;57.69
26859;BME280;14429;48.346;16.338;2024-02-23T04:00:09;97980.41;;;12.81;57.68
26859;BME280;14429;48.346;16.338;2024-02-23T04:02:34;97986.53;;;12.73;58.63
26859;BME280;14429;48.346;16.338;2024-02-23T04:05:00;97993.19;;;12.69;58.35
26859;BME280;14429;48.346;16.338;2024-02-23T04:07:25;98022.91;;;12.92;57.30
26859;BME280;14429;48.346;16.338;2024-02-23T04:09:51;98049.88;;;12.73;59.20
26859;BME280;14429;48.346;16.338;2024-02-23T04:12:17;98039.72;;;12.76;58.38
26859;BME280;14429;48.346;16.338;2024-02-23T04:14:43;98030.50;;;12.46;60.57
26859;BME280;14429;48.346;16.338;2024-02-23T04:17:08;98029.47;;;12.97;56.80
26859;BME280;14429;48.346;16.338;2024-02-23T04:19:34;98028.78;;;12.95;56.58
26859;BME280;14429;48.346;16.338;2024-02-23T04:21:59;98037.75;;;12.78;58.26
26859;BME280;14429;48.346;16.338;2024-02-23T04:24:24;98042.56;;;12.75;58.17
26859;BME280;14429;48.346;16.338;2024-02-23T04:26:50;98037.31;;;12.40;61.12
26859;BME280;14429;48.346;16.338;2024-02-23T04:29:16;98040.34;;;12.70;58.08
26859;BME280;14429;48.346;16.338;2024-02-23T04:31:42;98034.56;;;12.58;59.49
26859;BME280;14429;48.346;16.338;2024-02-23T04:34:07;98030.38;;;12.05;63.32
26859;BME280;14429;48.346;16.338;2024-02-23T04:36:33;98041.88;;;12.06;63.18
26859;BME280;14429;48.346;16.338;2024-02-23T04:38:58;98037.03;;;12.76;57.82
26859;BME280;14429;48.346;16.338;2024-02-23T04:41:23;98032.81;;;12.66;58.35
26859;BME280;14429;48.346;16.338;2024-02-23T04:43:49;98017.47;;;12.01;63.99
26859;BME280;14429;48.346;16.338;2024-02-23T04:46:16;98048.28;;;12.12;61.51
26859;BME280;14429;48.346;16.338;2024-02-23T04:48:41;98045.25;;;12.58;58.29
26859;BME280;14429;48.346;16.338;2024-02-23T04:51:07;98054.50;;;12.63;58.53
26859;BME280;14429;48.346;16.338;2024-02-23T04:53:36;98039.06;;;12.74;57.83
26859;BME280;14429;48.346;16.338;2024-02-23T04:56:01;98037.09;;;12.84;57.31
26859;BME280;14429;48.346;16.338;2024-02-23T04:58:27;98041.41;;;12.77;57.75
26859;BME280;14429;48.346;16.338;2024-02-23T05:00:52;98045.28;;;12.83;57.25
26859;BME280;14429;48.346;16.338;2024-02-23T05:03:19;98050.63;;;12.83;57.74
26859;BME280;14429;48.346;16.338;2024-02-23T05:05:44;98054.34;;;12.90;57.02
26859;BME280;14429;48.346;16.338;2024-02-23T05:08:10;98059.78;;;12.80;57.67
26859;BME280;14429;48.346;16.338;2024-02-23T05:10:35;98063.16;;;12.82;57.43
26859;BME280;14429;48.346;16.338;2024-02-23T05:13:00;98058.81;;;12.81;57.36
26859;BME280;14429;48.346;16.338;2024-02-23T05:15:26;98064.16;;;12.81;57.30
26859;BME280;14429;48.346;16.338;2024-02-23T05:17:51;98062.16;;;12.83;57.18
26859;BME280;14429;48.346;16.338;2024-02-23T05:20:18;98065.97;;;12.81;57.57
26859;BME280;14429;48.346;16.338;2024-02-23T05:22:43;98063.78;;;12.76;57.61
26859;BME280;14429;48.346;16.338;2024-02-23T05:25:09;98064.22;;;12.89;57.17
26859;BME280;14429;48.346;16.338;2024-02-23T05:27:34;98078.00;;;12.77;57.71
26859;BME280;14429;48.346;16.338;2024-02-23T05:30:00;98082.13;;;12.71;58.28
26859;BME280;14429;48.346;16.338;2024-02-23T05:32:25;98073.47;;;12.52;60.67
26859;BME280;14429;48.346;16.338;2024-02-23T05:34:51;98080.75;;;12.67;58.32
26859;BME280;14429;48.346;16.338;2024-02-23T05:37:17;98101.78;;;12.63;58.67
26859;BME280;14429;48.346;16.338;2024-02-23T05:39:43;98080.53;;;12.78;57.59
26859;BME280;14429;48.346;16.338;2024-02-23T05:42:08;98086.88;;;12.60;59.89
26859;BME280;14429;48.346;16.338;2024-02-23T05:44:34;98102.75;;;12.79;57.65
26859;BME280;14429;48.346;16.338;2024-02-23T05:46:59;98098.25;;;12.79;57.90
26859;BME280;14429;48.346;16.338;2024-02-23T05:49:25;98097.94;;;12.82;57.45
26859;BME280;14429;48.346;16.338;2024-02-23T05:51:50;98105.66;;;12.68;58.14
26859;BME280;14429;48.346;16.338;2024-02-23T05:54:17;98109.13;;;12.61;59.74
26859;BME280;14429;48.346;16.338;2024-02-23T05:56:43;98110.94;;;12.77;57.61
26859;BME280;14429;48.346;16.338;2024-02-23T05:59:09;98119.94;;;12.76;57.96
26859;BME280;14429;48.346;16.338;2024-02-23T06:01:34;98110.59;;;12.55;59.49
26859;BME280;14429;48.346;16.338;2024-02-23T06:04:00;98119.56;;;12.71;57.79
26859;BME280;14429;48.346;16.338;2024-02-23T06:06:25;98122.63;;;12.76;57.70
26859;BME280;14429;48.346;16.338;2024-02-23T06:08:50;98130.34;;;12.79;57.65
26859;BME280;14429;48.346;16.338;2024-02-23T06:11:17;98130.03;;;12.82;57.29
26859;BME280;14429;48.346;16.338;2024-02-23T06:13:43;98150.59;;;12.82;57.39
26859;BME280;14429;48.346;16.338;2024-02-23T06:16:10;98144.06;;;12.84;57.19
26859;BME280;14429;48.346;16.338;2024-02-23T06:18:35;98144.72;;;12.78;57.60
26859;BME280;14429;48.346;16.338;2024-02-23T06:21:01;98144.22;;;12.83;57.31
26859;BME280;14429;48.346;16.338;2024-02-23T06:23:26;98148.38;;;12.77;57.54
26859;BME280;14429;48.346;16.338;2024-02-23T06:25:52;98146.69;;;12.76;57.67
26859;BME280;14429;48.346;16.338;2024-02-23T06:28:18;98153.41;;;12.80;57.23
26859;BME280;14429;48.346;16.338;2024-02-23T06:30:44;98151.19;;;12.76;57.85
26859;BME280;14429;48.346;16.338;2024-02-23T06:33:09;98164.09;;;12.80;57.40
26859;BME280;14429;48.346;16.338;2024-02-23T06:35:35;98158.75;;;12.80;57.31
26859;BME280;14429;48.346;16.338;2024-02-23T06:38:00;98171.75;;;12.75;57.31
26859;BME280;14429;48.346;16.338;2024-02-23T06:40:25;98177.63;;;12.79;57.24
26859;BME280;14429;48.346;16.338;2024-02-23T06:42:51;98161.63;;;12.69;57.82
26859;BME280;14429;48.346;16.338;2024-02-23T06:45:18;98177.09;;;12.75;57.51
26859;BME280;14429;48.346;16.338;2024-02-23T06:47:44;98177.81;;;12.77;57.73
26859;BME280;14429;48.346;16.338;2024-02-23T06:50:10;98168.88;;;12.52;59.25
26859;BME280;14429;48.346;16.338;2024-02-23T10:02:52;98411.06;;;13.15;61.54
26859;BME280;14429;48.346;16.338;2024-02-23T10:05:18;98405.91;;;13.21;62.30
26859;BME280;14429;48.346;16.338;2024-02-23T10:07:44;98406.69;;;13.31;61.78
26859;BME280;14429;48.346;16.338;2024-02-23T10:10:10;98412.34;;;13.28;61.32
26859;BME280;14429;48.346;16.338;2024-02-23T10:12:35;98401.38;;;13.39;62.84
26859;BME280;14429;48.346;16.338;2024-02-23T10:15:01;98401.63;;;13.46;63.77
26859;BME280;14429;48.346;16.338;2024-02-23T10:17:27;98392.75;;;13.45;63.85
26859;BME280;14429;48.346;16.338;2024-02-23T10:19:53;98379.59;;;13.17;63.50
26859;BME280;14429;48.346;16.338;2024-02-23T10:22:19;98382.88;;;12.77;65.16
26859;BME280;14429;48.346;16.338;2024-02-23T10:24:44;98378.78;;;12.56;67.09
26859;BME280;14429;48.346;16.338;2024-02-23T10:27:10;98381.03;;;12.51;67.63
26859;BME280;14429;48.346;16.338;2024-02-23T10:29:35;98381.81;;;12.61;66.05
26859;BME280;14429;48.346;16.338;2024-02-23T10:32:01;98385.84;;;12.47;67.45
26859;BME280;14429;48.346;16.338;2024-02-23T10:34:27;98391.16;;;12.30;68.29
26859;BME280;14429;48.346;16.338;2024-02-23T10:36:56;98396.22;;;12.24;68.36
26859;BME280;14429;48.346;16.338;2024-02-23T10:39:23;98386.47;;;12.32;67.28
26859;BME280;14429;48.346;16.338;2024-02-23T10:41:56;98377.78;;;11.49;71.47
26859;BME280;14429;48.346;16.338;2024-02-23T10:44:21;98380.59;;;11.38;73.59
26859;BME280;14429;48.346;16.338;2024-02-23T10:46:48;98365.72;;;11.36;75.39
26859;BME280;14429;48.346;16.338;2024-02-23T10:49:16;98379.75;;;11.19;75.06
26859;BME280;14429;48.346;16.338;2024-02-23T10:51:43;98371.47;;;10.85;76.39
26859;BME280;14429;48.346;16.338;2024-02-23T10:54:09;98372.88;;;11.07;75.94
26859;BME280;14429;48.346;16.338;2024-02-23T10:56:36;98370.50;;;11.14;75.42
26859;BME280;14429;48.346;16.338;2024-02-23T10:59:01;98373.84;;;11.16;73.90
26859;BME280;14429;48.346;16.338;2024-02-23T11:01:27;98373.56;;;11.28;72.92
26859;BME280;14429;48.346;16.338;2024-02-23T11:03:53;98378.09;;;11.00;75.43
26859;BME280;14429;48.346;16.338;2024-02-23T11:06:19;98376.94;;;10.93;75.87
26859;BME280;14429;48.346;16.338;2024-02-23T11:08:44;98378.91;;;10.91;76.65
26859;BME280;14429;48.346;16.338;2024-02-23T11:11:11;98380.28;;;10.67;77.53
26859;BME280;14429;48.346;16.338;2024-02-23T11:13:37;98371.59;;;10.74;76.61
26859;BME280;14429;48.346;16.338;2024-02-23T11:16:03;98379.75;;;10.82;76.88
26859;BME280;14429;48.346;16.338;2024-02-23T11:18:30;98374.56;;;10.90;75.19
26859;BME280;14429;48.346;16.338;2024-02-23T11:20:56;98364.59;;;10.82;76.88
26859;BME280;14429;48.346;16.338;2024-02-23T11:23:24;98367.97;;;11.12;75.22
26859;BME280;14429;48.346;16.338;2024-02-23T11:26:04;98366.00;;;11.14;74.73
26859;BME280;14429;48.346;16.338;2024-02-23T11:28:31;98356.75;;;11.00;74.20
26859;BME280;14429;48.346;16.338;2024-02-23T11:30:56;98366.41;;;11.19;73.00
26859;BME280;14429;48.346;16.338;2024-02-23T11:33:28;98369.66;;;11.32;72.04
26859;BME280;14429;48.346;16.338;2024-02-23T11:35:53;98363.47;;;11.41;71.37
26859;BME280;14429;48.346;16.338;2024-02-23T11:38:20;98363.34;;;11.14;72.79
26859;BME280;14429;48.346;16.338;2024-02-23T11:40:46;98359.81;;;11.04;73.25
26859;BME280;14429;48.346;16.338;2024-02-23T11:43:13;98364.16;;;10.68;73.25
26859;BME280;14429;48.346;16.338;2024-02-23T11:45:40;98356.16;;;10.87;72.53
26859;BME280;14429;48.346;16.338;2024-02-23T11:48:07;98350.56;;;10.90;72.47
26859;BME280;14429;48.346;16.338;2024-02-23T11:50:32;98333.44;;;11.02;71.15
26859;BME280;14429;48.346;16.338;2024-02-23T11:52:58;98331.06;;;10.99;72.51
26859;BME280;14429;48.346;16.338;2024-02-23T11:55:26;98329.81;;;10.84;73.36
26859;BME280;14429;48.346;16.338;2024-02-23T11:57:51;98322.22;;;10.89;72.18
26859;BME280;14429;48.346;16.338;2024-02-23T12:00:17;98315.63;;;10.93;73.84
26859;BME280;14429;48.346;16.338;2024-02-23T12:02:44;98310.56;;;11.08;71.79
26859;BME280;14429;48.346;16.338;2024-02-23T12:05:10;98312.69;;;10.96;72.49
26859;BME280;14429;48.346;16.338;2024-02-23T12:07:35;98319.97;;;10.94;73.05
26859;BME280;14429;48.346;16.338;2024-02-23T12:10:01;98323.34;;;10.96;72.30
26859;BME280;14429;48.346;16.338;2024-02-23T12:12:26;98317.75;;;10.99;72.79
26859;BME280;14429;48.346;16.338;2024-02-23T12:14:52;98311.81;;;11.04;71.15
26859;BME280;14429;48.346;16.338;2024-02-23T12:17:18;98310.16;;;10.85;71.59
26859;BME280;14429;48.346;16.338;2024-02-23T12:19:44;98318.97;;;11.04;69.40
26859;BME280;14429;48.346;16.338;2024-02-23T12:22:10;98302.84;;;10.87;70.11
26859;BME280;14429;48.346;16.338;2024-02-23T12:24:36;98302.28;;;10.83;69.69
26859;BME280;14429;48.346;16.338;2024-02-23T12:27:01;98304.56;;;10.88;68.46
26859;BME280;14429;48.346;16.338;2024-02-23T12:29:26;98300.91;;;10.89;69.01
26859;BME280;14429;48.346;16.338;2024-02-23T12:32:02;98292.63;;;10.73;69.58
26859;BME280;14429;48.346;16.338;2024-02-23T12:34:28;98310.16;;;10.85;69.06
26859;BME280;14429;48.346;16.338;2024-02-23T12:36:55;98307.34;;;10.96;68.72
26859;BME280;14429;48.346;16.338;2024-02-23T12:39:21;98299.22;;;10.88;68.75
26859;BME280;14429;48.346;16.338;2024-02-23T12:41:46;98298.38;;;10.59;69.00
26859;BME280;14429;48.346;16.338;2024-02-23T12:44:12;98291.38;;;10.77;68.41
26859;BME280;14429;48.346;16.338;2024-02-23T12:46:37;98299.47;;;10.94;68.61
26859;BME280;14429;48.346;16.338;2024-02-23T12:49:02;98284.34;;;10.76;69.10
26859;BME280;14429;48.346;16.338;2024-02-23T12:51:28;98289.09;;;11.01;67.73
26859;BME280;14429;48.346;16.338;2024-02-23T12:53:55;98285.34;;;10.84;68.52
26859;BME280;14429;48.346;16.338;2024-02-23T12:56:20;98278.59;;;10.80;67.97
26859;BME280;14429;48.346;16.338;2024-02-23T12:58:46;98272.25;;;10.91;67.89
26859;BME280;14429;48.346;16.338;2024-02-23T13:01:11;98273.84;;;10.65;68.43
26859;BME280;14429;48.346;16.338;2024-02-23T13:03:38;98258.94;;;10.91;67.42
26859;BME280;14429;48.346;16.338;2024-02-23T13:06:04;98250.13;;;10.62;68.21
26859;BME280;14429;48.346;16.338;2024-02-23T13:08:30;98258.56;;;10.58;68.89
26859;BME280;14429;48.346;16.338;2024-02-23T13:10:57;98256.59;;;10.69;67.40
26859;BME280;14429;48.346;16.338;2024-02-23T13:13:22;98254.31;;;10.83;67.43
26859;BME280;14429;48.346;16.338;2024-02-23T13:15:50;98258.53;;;10.86;67.08
26859;BME280;14429;48.346;16.338;2024-02-23T13:18:15;98263.00;;;10.76;67.33
26859;BME280;14429;48.346;16.338;2024-02-23T13:20:41;98255.19;;;10.65;68.36
26859;BME280;14429;48.346;16.338;2024-02-23T13:23:07;98246.06;;;10.58;68.88
26859;BME280;14429;48.346;16.338;2024-02-23T13:25:32;98241.56;;;10.49;69.40
26859;BME280;14429;48.346;16.338;2024-02-23T13:27:59;98233.28;;;10.71;69.05
26859;BME280;14429;48.346;16.338;2024-02-23T13:30:24;98245.66;;;10.63;69.89
26859;BME280;14429;48.346;16.338;2024-02-23T13:32:50;98249.00;;;10.55;70.06
26859;BME280;14429;48.346;16.338;2024-02-23T13:35:15;98241.16;;;10.63;70.04
26859;BME280;14429;48.346;16.338;2024-02-23T13:37:42;98240.16;;;10.64;69.91
26859;BME280;14429;48.346;16.338;2024-02-23T13:40:08;98237.94;;;10.50;70.21
26859;BME280;14429;48.346;16.338;2024-02-23T13:42:34;98238.50;;;10.54;69.93
26859;BME280;14429;48.346;16.338;2024-02-23T13:45:01;98222.94;;;10.59;69.31
26859;BME280;14429;48.346;16.338;2024-02-23T13:47:26;98224.63;;;10.50;69.65
26859;BME280;14429;48.346;16.338;2024-02-23T13:49:52;98226.72;;;10.38;70.18
26859;BME280;14429;48.346;16.338;2024-02-23T13:52:17;98217.19;;;10.26;70.31
26859;BME280;14429;48.346;16.338;2024-02-23T13:54:42;98212.72;;;10.17;70.74
26859;BME280;14429;48.346;16.338;2024-02-23T13:57:08;98211.56;;;10.10;71.11
26859;BME280;14429;48.346;16.338;2024-02-23T13:59:33;98213.97;;;10.32;70.22
26859;BME280;14429;48.346;16.338;2024-02-23T14:02:00;98201.59;;;10.49;69.75
26859;BME280;14429;48.346;16.338;2024-02-23T14:04:26;98196.38;;;10.85;67.92
26859;BME280;14429;48.346;16.338;2024-02-23T14:06:51;98195.69;;;10.74;68.33
26859;BME280;14429;48.346;16.338;2024-02-23T14:09:17;98196.81;;;10.72;68.47
26859;BME280;14429;48.346;16.338;2024-02-23T14:11:42;98182.88;;;10.96;66.74
26859;BME280;14429;48.346;16.338;2024-02-23T14:14:08;98181.41;;;10.66;68.75
26859;BME280;14429;48.346;16.338;2024-02-23T14:16:33;98181.00;;;10.51;69.26
26859;BME280;14429;48.346;16.338;2024-02-23T14:19:00;98171.91;;;10.45;70.42
26859;BME280;14429;48.346;16.338;2024-02-23T14:21:25;98169.28;;;10.90;67.46
26859;BME280;14429;48.346;16.338;2024-02-23T14:23:51;98168.81;;;10.40;70.88
26859;BME280;14429;48.346;16.338;2024-02-23T14:26:16;98165.16;;;10.59;69.60
26859;BME280;14429;48.346;16.338;2024-02-23T14:28:42;98176.56;;;10.24;72.15
26859;BME280;14429;48.346;16.338;2024-02-23T14:31:07;98174.97;;;10.12;72.42
26859;BME280;14429;48.346;16.338;2024-02-23T14:33:33;98174.97;;;10.31;72.15
26859;BME280;14429;48.346;16.338;2024-02-23T14:35:59;98175.97;;;10.30;72.34
26859;BME280;14429;48.346;16.338;2024-02-23T14:38:25;98178.34;;;10.42;71.46
26859;BME280;14429;48.346;16.338;2024-02-23T14:40:50;98180.28;;;10.59;70.39
26859;BME280;14429;48.346;16.338;2024-02-23T14:43:16;98179.25;;;11.24;65.75
26859;BME280;14429;48.346;16.338;2024-02-23T14:45:41;98180.44;;;11.48;64.77
26859;BME280;14429;48.346;16.338;2024-02-23T14:48:07;98176.47;;;11.16;66.77
26859;BME280;14429;48.346;16.338;2024-02-23T14:50:33;98172.94;;;10.89;69.07
26859;BME280;14429;48.346;16.338;2024-02-23T14:53:00;98160.84;;;10.94;68.29
26859;BME280;14429;48.346;16.338;2024-02-23T14:55:25;98154.38;;;10.97;68.23
26859;BME280;14429;48.346;16.338;2024-02-23T14:57:51;98156.84;;;10.72;70.25
26859;BME280;14429;48.346;16.338;2024-02-23T15:00:17;98164.03;;;10.62;70.92
26859;BME280;14429;48.346;16.338;2024-02-23T15:02:43;98175.25;;;10.56;71.50
26859;BME280;14429;48.346;16.338;2024-02-23T15:05:09;98167.69;;;10.42;72.51
26859;BME280;14429;48.346;16.338;2024-02-23T15:07:34;98160.13;;;10.47;72.18
26859;BME280;14429;48.346;16.338;2024-02-23T15:10:01;98163.50;;;10.40;72.78
26859;BME280;14429;48.346;16.338;2024-02-23T15:12:27;98157.59;;;10.46;71.96
26859;BME280;14429;48.346;16.338;2024-02-23T15:14:52;98161.94;;;10.37;72.96
26859;BME280;14429;48.346;16.338;2024-02-23T15:17:18;98152.34;;;10.72;69.81
26859;BME280;14429;48.346;16.338;2024-02-23T15:19:43;98146.09;;;10.54;71.48
26859;BME280;14429;48.346;16.338;2024-02-23T15:22:08;98130.09;;;10.45;72.83
26859;BME280;14429;48.346;16.338;2024-02-23T15:24:34;98129.81;;;10.48;72.27
26859;BME280;14429;48.346;16.338;2024-02-23T15:27:01;98134.03;;;10.50;72.25
26859;BME280;14429;48.346;16.338;2024-02-23T15:29:26;98122.72;;;10.84;69.63
26859;BME280;14429;48.346;16.338;2024-02-23T15:31:51;98124.66;;;10.92;69.12
26859;BME280;14429;48.346;16.338;2024-02-23T15:34:17;98120.63;;;11.14;68.07
26859;BME280;14429;48.346;16.338;2024-02-23T15:36:42;98115.19;;;11.33;66.89
26859;BME280;14429;48.346;16.338;2024-02-23T15:39:08;98115.59;;;11.11;69.04
26859;BME280;14429;48.346;16.338;2024-02-23T15:41:33;98117.59;;;11.00;69.25
26859;BME280;14429;48.346;16.338;2024-02-23T15:44:00;98118.16;;;10.94;70.08
26859;BME280;14429;48.346;16.338;2024-02-23T15:46:25;98112.97;;;11.29;66.24
26859;BME280;14429;48.346;16.338;2024-02-23T15:48:51;98118.03;;;10.96;70.32
26859;BME280;14429;48.346;16.338;2024-02-23T15:51:16;98106.97;;;10.91;70.85
26859;BME280;14429;48.346;16.338;2024-02-23T15:53:42;98116.97;;;11.15;67.79